Concordia, Missouri
Current Conditions -  °F | °C
As of 11:58 PM on Friday 28 Nov 2014 (Local Time) from KSZL Reporting Station
Clear Clear  
Wind Chill: 11°   Ceiling: Unl
Heat Index: 11°   Visibility: 10mi
Dew Point:   Wind: 21mph
Humidity: 65%   Direction: 220°SW
Pressure: 29.74"   Gusts: 26mph
Location:  38.98°N, 93.57°W
Report Text: KSZL 290558Z AUTO 22018G23KT 10SM CLR 12/05 A2974 RMK AO2 PK WND 23026/18 SLP073 T01150051 10124 20095 57016 $
Loading
Personal Weather Stations






























Interactive Weather Map New forecast layout! Learn more

10-Day Weather Forecast

Advertisements
Track Severe Weather on mobile